Skip Navigation

Christman Field Latest Observations

Switch to metric unitsOther observation timesWeekly graphs

Date Time
MST
Temp
°F
RH
%
DewPt
°F
Wind
mph
Dir
°
Gust
mph
Dir
°
Press
in Hg
Solar
W/m^2
Prec
in
2017-11-19 07:35 22.2 69.8 13.9 1.3 3.7 24.942 36.4 0.00
2017-11-19 07:30 21.8 67.3 12.6 1.6 4.7 24.942 31.0 0.00
2017-11-19 07:25 21.4 68.3 12.5 1.4 4.2 24.942 27.1 0.00
2017-11-19 07:20 20.3 69.6 11.9 0.2 1.1 24.942 22.8 0.00
2017-11-19 07:15 20.1 70.5 12.0 1.8 3.9 24.943 18.8 0.00
2017-11-19 07:10 20.6 67.8 11.6 4.4 5.2 24.943 14.0 0.00
2017-11-19 07:05 20.6 68.9 12.0 3.6 4.8 24.942 9.0 0.00
2017-11-19 07:00 21.4 66.5 12.0 4.3 6.0 24.941 4.8 0.00
2017-11-19 06:55 20.2 70.3 12.1 1.7 3.3 24.940 3.5 0.00
2017-11-19 06:50 20.7 69.8 12.4 4.2 5.6 24.946 4.2 0.00
2017-11-19 06:45 20.3 69.7 11.9 5.4 7.3 24.951 3.7 0.00
2017-11-19 06:40 20.5 67.4 11.4 4.2 6.7 24.955 1.8 0.00
2017-11-19 06:35 19.0 74.0 12.1 4.4 7.6 24.957 0.4 0.00
2017-11-19 06:30 19.7 70.5 11.7 1.7 7.5 24.953 0.2 0.00
2017-11-19 06:25 19.5 72.1 12.0 3.5 8.4 24.945 0.0 0.00
2017-11-19 06:20 19.2 71.2 11.4 8.1 8.9 24.936 0.0 0.00
2017-11-19 06:15 19.9 69.9 11.7 5.4 8.3 24.929 0.0 0.00
2017-11-19 06:10 21.2 64.8 11.2 2.3 4.1 24.933 0.0 0.00
2017-11-19 06:05 20.9 68.1 12.0 5.4 6.4 24.937 0.0 0.00
2017-11-19 06:00 21.2 64.9 11.2 4.9 5.4 24.934 0.0 0.00
2017-11-19 05:55 20.0 64.5 10.0 3.9 5.0 24.926 0.0 0.00
2017-11-19 05:50 18.3 70.4 10.3 5.2 6.8 24.921 0.0 0.00
2017-11-19 05:45 19.6 69.1 11.1 4.7 5.2 24.921 0.0 0.00
2017-11-19 05:40 20.4 62.8 9.7 2.8 5.3 24.925 0.0 0.00
2017-11-19 05:35 19.4 69.0 10.9 0.5 1.1 24.928 0.0 0.00
2017-11-19 05:30 19.2 70.5 11.2 0.5 1.9 24.926 0.0 0.00
2017-11-19 05:25 20.9 67.7 11.9 1.4 2.7 24.928 0.0 0.00
2017-11-19 05:20 21.8 66.6 12.4 3.7 5.0 24.929 0.0 0.00
2017-11-19 05:15 21.3 66.2 11.8 4.5 5.0 24.928 0.0 0.00
2017-11-19 05:10 20.3 65.4 10.6 5.6 6.5 24.927 0.0 0.00